createdAt,value
2022-09-06T00:00:49.540Z,3.60
2022-09-06T00:02:18.565Z,3.90
2022-09-06T00:08:11.129Z,3.10
2022-09-06T00:15:09.139Z,3.60
2022-09-06T00:16:38.122Z,3.40
2022-09-06T00:18:07.099Z,3.20
2022-09-06T00:22:30.363Z,3.60
2022-09-06T00:23:30.320Z,3.30
2022-09-06T00:24:30.316Z,3.60
2022-09-06T00:25:30.300Z,3.20
2022-09-06T00:26:59.372Z,2.70
2022-09-06T00:28:28.580Z,3.10
2022-09-06T00:34:19.053Z,3.40
2022-09-06T00:38:13.637Z,3.50
2022-09-06T00:39:42.623Z,3.60
2022-09-06T00:42:38.717Z,3.20
2022-09-06T00:48:58.217Z,3.40
2022-09-06T00:51:54.746Z,3.30
2022-09-06T00:53:23.335Z,3.40
2022-09-06T00:55:21.422Z,2.90
2022-09-06T01:00:14.130Z,3.30
2022-09-06T01:01:43.320Z,2.90
2022-09-06T01:06:06.552Z,3.30
2022-09-06T01:14:22.054Z,3.30
2022-09-06T01:16:20.093Z,3.00
2022-09-06T01:18:18.341Z,3.00
2022-09-06T01:19:47.324Z,3.00
2022-09-06T01:27:05.188Z,3.10
2022-09-06T01:30:30.457Z,2.90
2022-09-06T01:33:26.714Z,3.80
2022-09-06T01:35:24.681Z,3.40
2022-09-06T01:38:21.437Z,3.10
2022-09-06T01:39:50.428Z,3.20
2022-09-06T01:41:19.394Z,3.20
2022-09-06T01:50:33.319Z,3.50
2022-09-06T01:58:49.713Z,3.30
2022-09-06T02:00:47.839Z,3.20
2022-09-06T02:05:12.016Z,3.60
2022-09-06T02:08:08.744Z,3.60
2022-09-06T02:09:37.727Z,3.00
2022-09-06T02:11:35.750Z,3.30
2022-09-06T02:13:04.756Z,3.70
2022-09-06T02:14:33.791Z,3.20
2022-09-06T02:17:29.933Z,3.10
2022-09-06T02:19:57.020Z,3.30
2022-09-06T02:21:26.103Z,3.30
2022-09-06T02:25:20.847Z,3.90
2022-09-06T02:29:14.378Z,4.00
2022-09-06T02:34:06.490Z,3.30
2022-09-06T02:36:33.554Z,3.50
2022-09-06T02:38:31.583Z,3.50
2022-09-06T02:40:00.685Z,3.70
2022-09-06T02:45:51.513Z,3.60
2022-09-06T02:47:49.571Z,3.90
2022-09-06T02:49:52.120Z,3.80
2022-09-06T02:54:44.583Z,4.10
2022-09-06T02:57:11.666Z,4.30
2022-09-06T02:58:40.694Z,4.60
2022-09-06T03:01:08.023Z,4.50
2022-09-06T03:03:06.074Z,5.20
2022-09-06T03:06:02.291Z,4.50
2022-09-06T03:08:00.306Z,5.00
2022-09-06T03:10:56.387Z,4.90
2022-09-06T03:15:49.255Z,4.70
2022-09-06T03:17:47.650Z,4.60
2022-09-06T03:20:14.721Z,4.80
2022-09-06T03:21:43.901Z,4.70
2022-09-06T03:24:11.038Z,5.70
2022-09-06T03:26:38.148Z,4.70
2022-09-06T03:31:01.699Z,5.50
2022-09-06T03:34:55.815Z,4.90
2022-09-06T03:37:23.581Z,5.30
2022-09-06T03:38:51.893Z,4.80
2022-09-06T03:40:49.901Z,5.50
2022-09-06T03:42:18.892Z,4.90
2022-09-06T03:43:47.889Z,5.10
2022-09-06T03:47:15.566Z,5.30
2022-09-06T03:50:10.369Z,4.50
2022-09-06T03:53:36.024Z,4.80
2022-09-06T03:55:04.943Z,4.40
2022-09-06T04:00:26.306Z,4.10
2022-09-06T04:05:47.462Z,4.70
2022-09-06T04:08:43.525Z,5.10
2022-09-06T04:16:59.231Z,4.70
2022-09-06T04:19:55.303Z,4.70
2022-09-06T04:21:53.290Z,5.60
2022-09-06T04:23:22.313Z,5.50
2022-09-06T04:24:51.289Z,5.70
2022-09-06T04:26:20.272Z,5.90
2022-09-06T04:27:49.312Z,5.80
2022-09-06T04:31:14.435Z,5.10
2022-09-06T04:33:12.491Z,6.00
2022-09-06T04:38:33.968Z,6.20
2022-09-06T04:41:01.261Z,6.00
2022-09-06T04:47:50.022Z,5.20
2022-09-06T04:50:17.027Z,6.80
2022-09-06T04:53:42.272Z,6.10
2022-09-06T04:55:11.272Z,6.30
2022-09-06T04:56:40.661Z,5.80
2022-09-06T04:59:07.756Z,6.50
2022-09-06T05:00:36.737Z,7.00
2022-09-06T05:02:05.824Z,6.60
2022-09-06T05:04:32.815Z,7.40
2022-09-06T05:08:55.894Z,7.60
2022-09-06T05:12:50.184Z,7.40
2022-09-06T05:15:17.231Z,7.90
2022-09-06T05:17:15.276Z,8.60
2022-09-06T05:18:44.321Z,7.00
2022-09-06T05:20:42.397Z,7.60
2022-09-06T05:22:40.763Z,8.50
2022-09-06T05:24:39.138Z,7.60
2022-09-06T05:26:08.084Z,8.10
2022-09-06T05:28:06.110Z,8.00
2022-09-06T05:29:35.097Z,8.40
2022-09-06T05:32:02.786Z,8.00
2022-09-06T05:33:31.751Z,8.10
2022-09-06T05:35:00.772Z,7.50
2022-09-06T05:39:25.159Z,7.70
2022-09-06T05:41:51.815Z,7.80
2022-09-06T05:44:18.918Z,7.20
2022-09-06T05:46:46.014Z,8.00
2022-09-06T05:48:44.073Z,8.10
2022-09-06T05:50:42.075Z,8.10
2022-09-06T05:52:40.164Z,8.20
2022-09-06T05:54:38.194Z,7.80
2022-09-06T05:58:03.389Z,7.30
2022-09-06T05:59:32.583Z,7.60
2022-09-06T06:01:30.533Z,7.90
2022-09-06T06:04:26.778Z,7.70
2022-09-06T06:06:24.820Z,8.00
2022-09-06T06:07:54.843Z,7.40
2022-09-06T06:11:20.239Z,8.20
2022-09-06T06:13:18.293Z,7.50
2022-09-06T06:14:47.330Z,8.20
2022-09-06T06:16:45.388Z,8.30
2022-09-06T06:18:47.607Z,8.40
2022-09-06T06:20:13.706Z,10.90
2022-09-06T06:24:38.119Z,7.50
2022-09-06T06:26:06.842Z,8.60
2022-09-06T06:27:36.416Z,8.00
2022-09-06T06:29:05.045Z,7.80
2022-09-06T06:36:52.986Z,8.70
2022-09-06T06:42:54.360Z,8.10
2022-09-06T06:47:46.860Z,9.80
2022-09-06T06:49:44.910Z,9.10
2022-09-06T06:51:13.875Z,8.90
2022-09-06T06:53:41.181Z,9.40
2022-09-06T06:55:10.046Z,9.00
2022-09-06T06:57:08.006Z,10.20
2022-09-06T07:00:33.370Z,9.30
2022-09-06T07:02:31.459Z,9.50
2022-09-06T07:04:29.636Z,10.60
2022-09-06T07:07:31.143Z,9.60
2022-09-06T07:10:34.472Z,9.50
2022-09-06T07:12:26.178Z,9.90
2022-09-06T07:14:24.200Z,8.70
2022-09-06T07:16:22.609Z,9.80
2022-09-06T07:18:49.169Z,10.30
2022-09-06T07:22:46.476Z,10.80
2022-09-06T07:34:28.847Z,10.20
2022-09-06T07:37:25.392Z,10.10
2022-09-06T07:38:54.403Z,9.50
2022-09-06T07:43:17.777Z,9.40
2022-09-06T07:44:46.817Z,8.70
2022-09-06T07:46:44.919Z,9.20
2022-09-06T07:48:42.852Z,9.40
2022-09-06T07:53:42.785Z,8.70
2022-09-06T07:57:07.418Z,8.30
2022-09-06T08:01:01.871Z,8.00
2022-09-06T08:04:26.569Z,8.80
2022-09-06T08:06:24.574Z,9.00
2022-09-06T08:10:21.777Z,8.70
2022-09-06T08:12:19.750Z,9.20
2022-09-06T08:15:17.799Z,8.60
2022-09-06T08:17:44.761Z,8.60
2022-09-06T08:21:39.149Z,9.50
2022-09-06T08:24:35.193Z,8.80
2022-09-06T08:26:04.276Z,8.90
2022-09-06T08:39:22.173Z,7.80
2022-09-06T08:40:51.192Z,7.90
2022-09-06T08:42:20.155Z,7.30
2022-09-06T08:48:43.073Z,8.00
2022-09-06T08:50:11.413Z,8.20
2022-09-06T08:54:45.956Z,7.60
2022-09-06T09:04:01.370Z,6.30
2022-09-06T09:05:59.432Z,7.40
2022-09-06T09:07:29.369Z,7.50
2022-09-06T09:08:58.399Z,6.20
2022-09-06T09:11:25.471Z,6.70
2022-09-06T09:13:23.544Z,5.60
2022-09-06T09:14:52.602Z,5.30
2022-09-06T09:16:50.583Z,5.60
2022-09-06T09:18:48.692Z,5.10
2022-09-06T09:20:46.851Z,5.20
2022-09-06T09:24:12.427Z,5.60
2022-09-06T09:25:41.422Z,5.90
2022-09-06T09:27:10.397Z,6.20
2022-09-06T09:29:37.854Z,6.30
2022-09-06T09:32:33.941Z,5.40
2022-09-06T09:34:03.242Z,5.60
2022-09-06T09:35:32.543Z,5.30
2022-09-06T09:38:31.568Z,4.70
2022-09-06T09:40:29.528Z,4.40
2022-09-06T09:42:27.534Z,4.40
2022-09-06T09:44:25.943Z,7.00
2022-09-06T09:45:54.665Z,6.20
2022-09-06T09:47:53.525Z,4.40
2022-09-06T09:51:26.173Z,4.70
2022-09-06T09:52:49.817Z,5.30
2022-09-06T09:54:18.479Z,3.70
2022-09-06T09:57:43.520Z,5.00
2022-09-06T10:01:08.722Z,4.90
2022-09-06T10:07:56.899Z,4.20
2022-09-06T10:12:49.073Z,3.90
2022-09-06T10:14:18.087Z,4.90
2022-09-06T10:16:16.127Z,4.20
2022-09-06T10:18:43.139Z,3.40
2022-09-06T10:22:09.474Z,3.70
2022-09-06T10:26:32.698Z,3.80
2022-09-06T10:28:30.870Z,3.70
2022-09-06T10:32:27.262Z,3.10
2022-09-06T10:33:55.425Z,3.00
2022-09-06T10:36:22.437Z,3.80
2022-09-06T10:38:49.603Z,3.30
2022-09-06T10:42:15.195Z,3.30
2022-09-06T10:44:14.244Z,3.30
2022-09-06T10:45:42.414Z,3.30
2022-09-06T10:47:40.487Z,2.10
2022-09-06T10:49:09.486Z,2.70
2022-09-06T10:50:38.429Z,2.80
2022-09-06T10:52:37.264Z,2.60
2022-09-06T10:55:04.381Z,2.40
2022-09-06T10:56:33.614Z,2.60
2022-09-06T10:58:19.063Z,2.60
2022-09-06T10:59:36.419Z,2.50
2022-09-06T11:02:30.613Z,2.80
2022-09-06T11:06:28.193Z,2.80
2022-09-06T11:09:56.424Z,2.60
2022-09-06T11:11:25.259Z,2.30
2022-09-06T11:13:22.986Z,2.50
2022-09-06T11:17:17.367Z,3.00
2022-09-06T11:18:46.370Z,3.10
2022-09-06T11:21:42.404Z,2.20
2022-09-06T11:26:06.049Z,2.40
2022-09-06T11:27:35.085Z,2.70
2022-09-06T11:29:33.466Z,2.50
2022-09-06T11:32:40.913Z,2.70
2022-09-06T11:38:02.254Z,2.40
2022-09-06T11:45:20.149Z,2.40
2022-09-06T11:47:47.211Z,2.10
2022-09-06T11:51:41.629Z,2.00
2022-09-06T11:54:38.650Z,1.80
2022-09-06T11:57:05.238Z,2.20
2022-09-06T11:58:34.199Z,2.30
2022-09-06T12:04:59.692Z,2.00
2022-09-06T12:07:54.899Z,2.40
2022-09-06T12:11:48.682Z,1.70
2022-09-06T12:14:15.767Z,1.80
2022-09-06T12:15:44.669Z,1.70
2022-09-06T12:18:11.779Z,2.10
2022-09-06T12:20:10.249Z,1.70
2022-09-06T12:22:37.232Z,2.10
2022-09-06T12:24:06.214Z,1.60
2022-09-06T12:28:00.569Z,2.10
2022-09-06T12:29:58.529Z,1.90
2022-09-06T12:32:55.157Z,1.60
2022-09-06T12:36:49.605Z,2.20
2022-09-06T12:38:47.658Z,2.90
2022-09-06T12:40:16.661Z,1.80
2022-09-06T12:45:09.064Z,1.90
2022-09-06T12:48:05.142Z,2.00
2022-09-06T12:54:26.532Z,2.10
2022-09-06T12:55:55.875Z,2.00
2022-09-06T12:57:24.969Z,2.20
2022-09-06T12:58:54.089Z,1.90
2022-09-06T13:00:23.090Z,2.30
2022-09-06T13:01:52.482Z,2.30
2022-09-06T13:04:19.556Z,2.30
2022-09-06T13:05:48.559Z,2.10
2022-09-06T13:08:44.823Z,2.30
2022-09-06T13:12:39.260Z,2.40
2022-09-06T13:14:13.313Z,1.80
2022-09-06T13:17:35.227Z,2.20
2022-09-06T13:19:04.526Z,2.20
2022-09-06T13:20:33.340Z,2.00
2022-09-06T13:23:29.528Z,2.00
2022-09-06T13:26:56.220Z,1.80
2022-09-06T13:29:23.431Z,1.60
2022-09-06T13:31:21.543Z,2.10
2022-09-06T13:36:44.591Z,1.90
2022-09-06T13:38:42.681Z,1.80
2022-09-06T13:40:11.709Z,1.80
2022-09-06T13:44:06.125Z,1.90
2022-09-06T13:55:36.396Z,2.20
2022-09-06T13:57:05.478Z,1.80
2022-09-06T13:59:03.442Z,2.00
2022-09-06T14:03:03.059Z,1.80
2022-09-06T14:05:59.391Z,2.20
2022-09-06T14:07:57.333Z,2.10
2022-09-06T14:15:26.619Z,1.70
2022-09-06T14:22:17.129Z,2.40
2022-09-06T14:24:15.460Z,1.80
2022-09-06T14:29:08.218Z,1.40
2022-09-06T14:32:05.741Z,1.90
2022-09-06T14:35:02.449Z,1.70
2022-09-06T14:40:25.524Z,1.50
2022-09-06T14:49:11.746Z,1.30
2022-09-06T14:52:07.757Z,1.30
2022-09-06T14:55:32.949Z,1.20
2022-09-06T14:57:02.047Z,1.60
2022-09-06T14:59:29.585Z,1.10
2022-09-06T15:07:24.627Z,1.60
2022-09-06T15:09:51.867Z,1.60
2022-09-06T15:12:48.338Z,1.50
2022-09-06T15:25:32.279Z,1.40
2022-09-06T15:27:01.166Z,1.50
2022-09-06T15:29:28.019Z,1.50
2022-09-06T15:32:24.169Z,1.70
2022-09-06T15:33:53.115Z,1.40
2022-09-06T15:35:51.120Z,1.50
2022-09-06T15:43:12.958Z,1.40
2022-09-06T15:46:09.449Z,1.40
2022-09-06T15:47:38.436Z,1.50
2022-09-06T15:50:05.678Z,1.30
2022-09-06T15:56:25.072Z,1.30
2022-09-06T16:00:21.015Z,1.30
2022-09-06T16:04:44.447Z,1.40
2022-09-06T16:07:12.450Z,1.50
2022-09-06T16:10:38.200Z,1.30
2022-09-06T16:13:05.691Z,1.30
2022-09-06T16:15:32.752Z,1.10
2022-09-06T16:23:49.514Z,1.40
2022-09-06T16:25:47.903Z,1.50
2022-09-06T16:27:45.939Z,1.50
2022-09-06T16:29:14.973Z,1.50
2022-09-06T16:33:43.642Z,1.50
2022-09-06T16:35:12.687Z,1.30
2022-09-06T16:36:42.119Z,1.40
2022-09-06T16:45:19.248Z,1.70
2022-09-06T16:47:46.311Z,1.50
2022-09-06T16:52:40.761Z,1.40
2022-09-06T16:59:30.263Z,1.60
2022-09-06T17:05:20.944Z,2.10
2022-09-06T17:07:48.422Z,1.50
2022-09-06T17:13:10.063Z,1.20
2022-09-06T17:14:39.152Z,1.40
2022-09-06T17:19:02.454Z,1.60
2022-09-06T17:21:00.509Z,1.60
2022-09-06T17:22:29.533Z,1.60
2022-09-06T17:26:53.319Z,1.70
2022-09-06T17:29:49.829Z,1.70
2022-09-06T17:31:23.620Z,1.90
2022-09-06T17:32:48.837Z,1.40
2022-09-06T17:34:17.835Z,1.30
2022-09-06T17:37:14.116Z,1.50
2022-09-06T17:39:41.118Z,1.60
2022-09-06T17:41:39.374Z,1.60
2022-09-06T17:46:31.987Z,1.90
2022-09-06T17:49:28.352Z,1.60
2022-09-06T17:50:57.355Z,1.30
2022-09-06T17:53:24.350Z,1.30
2022-09-06T17:58:16.808Z,1.30
2022-09-06T18:00:43.819Z,1.40
2022-09-06T18:02:12.847Z,1.30
2022-09-06T18:05:38.062Z,1.80
2022-09-06T18:07:08.023Z,1.90
2022-09-06T18:15:23.215Z,2.10
2022-09-06T18:19:47.225Z,12.30
2022-09-06T18:21:45.306Z,10.70
2022-09-06T18:24:12.525Z,8.70
2022-09-06T18:26:11.580Z,7.70
2022-09-06T18:29:37.075Z,6.00
2022-09-06T18:33:31.455Z,5.00
2022-09-06T18:38:52.635Z,3.80
2022-09-06T18:43:16.094Z,3.20
2022-09-06T18:46:12.203Z,2.70
2022-09-06T18:49:29.025Z,2.50
2022-09-06T18:53:23.149Z,2.30
2022-09-06T18:54:52.043Z,2.10
2022-09-06T18:56:50.079Z,2.10
2022-09-06T19:05:06.037Z,1.70
2022-09-06T19:07:04.583Z,2.10
2022-09-06T19:08:33.629Z,2.10
2022-09-06T19:10:03.072Z,2.10
2022-09-06T19:11:31.649Z,1.80
2022-09-06T19:17:03.853Z,2.60
2022-09-06T19:19:01.860Z,2.20
2022-09-06T19:20:30.831Z,2.10
2022-09-06T19:25:23.648Z,2.80
2022-09-06T19:27:21.602Z,2.30
2022-09-06T19:31:16.541Z,2.40
2022-09-06T19:35:11.243Z,2.40
2022-09-06T19:37:09.633Z,2.40
2022-09-06T19:40:16.806Z,1.90
2022-09-06T19:41:45.701Z,2.20
2022-09-06T19:47:07.551Z,2.00
2022-09-06T19:49:34.507Z,2.30
2022-09-06T19:51:03.499Z,2.20
2022-09-06T19:53:06.611Z,2.40
2022-09-06T19:55:00.561Z,1.80
2022-09-06T19:57:27.522Z,2.30
2022-09-06T19:59:25.622Z,1.80
2022-09-06T20:01:52.945Z,2.70
2022-09-06T20:04:49.285Z,2.30
2022-09-06T20:06:47.517Z,2.10
2022-09-06T20:09:14.647Z,2.40
2022-09-06T20:12:39.742Z,2.10
2022-09-06T20:14:08.719Z,2.10
2022-09-06T20:16:06.818Z,2.40
2022-09-06T20:17:35.772Z,2.20
2022-09-06T20:20:31.827Z,2.10
2022-09-06T20:22:58.868Z,2.30
2022-09-06T20:27:22.073Z,3.00
2022-09-06T20:35:37.863Z,2.50
2022-09-06T20:38:04.957Z,2.70
2022-09-06T20:39:34.000Z,2.50
2022-09-06T20:46:22.949Z,3.00
2022-09-06T20:49:50.436Z,2.40
2022-09-06T20:53:45.435Z,2.30
2022-09-06T20:55:43.177Z,3.10
2022-09-06T20:59:38.086Z,2.40
2022-09-06T21:01:36.014Z,2.90
2022-09-06T21:03:33.877Z,2.70
2022-09-06T21:07:28.493Z,2.70
2022-09-06T21:09:55.806Z,2.80
2022-09-06T21:12:23.275Z,2.50
2022-09-06T21:16:47.419Z,3.00
2022-09-06T21:26:53.165Z,3.90
2022-09-06T21:29:28.525Z,4.30
2022-09-06T21:32:52.088Z,4.40
2022-09-06T21:38:56.929Z,3.40
2022-09-06T21:51:01.109Z,4.20
2022-09-06T21:55:24.194Z,4.60
2022-09-06T21:58:57.878Z,4.00
2022-09-06T22:00:56.539Z,3.50
2022-09-06T22:04:11.908Z,3.90
2022-09-06T22:08:36.196Z,4.60
2022-09-06T22:10:34.606Z,4.30
2022-09-06T22:12:03.636Z,4.40
2022-09-06T22:18:56.774Z,4.40
2022-09-06T22:20:25.846Z,4.70
2022-09-06T22:21:54.808Z,3.70
2022-09-06T22:24:22.172Z,4.80
2022-09-06T22:25:51.135Z,4.00
2022-09-06T22:27:20.137Z,4.40
2022-09-06T22:28:49.131Z,3.70
2022-09-06T22:31:45.327Z,3.90
2022-09-06T22:34:12.382Z,4.50
2022-09-06T22:35:41.373Z,4.00
2022-09-06T22:38:38.125Z,4.00
2022-09-06T22:40:07.220Z,4.70
2022-09-06T22:42:05.340Z,4.30
2022-09-06T22:43:34.507Z,4.50
2022-09-06T22:45:03.513Z,4.30
2022-09-06T22:47:01.553Z,3.90
2022-09-06T22:48:30.579Z,3.90
2022-09-06T22:50:28.576Z,3.80
2022-09-06T22:51:57.568Z,4.70
2022-09-06T22:53:26.781Z,4.90
2022-09-06T22:54:58.077Z,4.60
2022-09-06T22:59:49.157Z,5.10
2022-09-06T23:02:16.649Z,4.70
2022-09-06T23:03:45.714Z,4.20
2022-09-06T23:09:36.465Z,4.80
2022-09-06T23:11:05.548Z,4.90
2022-09-06T23:14:01.635Z,4.90
2022-09-06T23:15:30.603Z,4.50
2022-09-06T23:17:28.986Z,4.60
2022-09-06T23:19:56.210Z,4.40
2022-09-06T23:21:25.244Z,4.80
2022-09-06T23:24:21.324Z,5.00
2022-09-06T23:28:15.690Z,4.90
2022-09-06T23:30:13.738Z,5.00
2022-09-06T23:34:08.304Z,5.10
2022-09-06T23:36:35.387Z,5.00
2022-09-06T23:38:05.003Z,4.90
2022-09-06T23:39:33.440Z,5.10
2022-09-06T23:41:02.477Z,4.80
2022-09-06T23:42:31.413Z,4.90
2022-09-06T23:44:58.516Z,4.70
2022-09-06T23:48:23.994Z,4.60
2022-09-06T23:56:39.364Z,5.30
